Time;durP1;ratioP1;P1;durP2;ratioP2;P2;SDS_P1;SDS_P2;PMS_P1;PMS_P2;Temp;Humidity;BMP_temperature;BMP_pressure;BME280_temperature;BME280_humidity;BME280_pressure;Samples;Min_cycle;Max_cycle;Signal;HPM_P1;HPM_P2
2021/09/20 00:01:52;;;;;;;3.42;2.50;;;;;;;9.71;96.56;98688.71;1631394;87;21113;-75
2021/09/20 00:04:19;;;;;;;1.25;1.17;;;;;;;9.72;96.58;98687.11;1650629;85;21066;-80
2021/09/20 00:06:45;;;;;;;0.98;0.98;;;;;;;9.73;96.52;98691.95;1650537;86;21533;-76
2021/09/20 00:09:13;;;;;;;1.57;1.35;;;;;;;9.68;96.56;98703.50;1650590;85;20979;-75
2021/09/20 00:11:40;;;;;;;1.25;1.15;;;;;;;9.65;96.75;98694.61;1650378;86;21039;-75
2021/09/20 00:14:08;;;;;;;1.10;1.00;;;;;;;9.64;96.87;98679.57;1650584;86;21182;-77
2021/09/20 00:16:35;;;;;;;1.10;1.10;;;;;;;9.64;97.02;98690.31;1631007;86;21008;-75
2021/09/20 00:19:04;;;;;;;1.85;1.00;;;;;;;9.64;97.08;98678.23;1650127;87;21528;-77
2021/09/20 00:21:30;;;;;;;1.57;1.15;;;;;;;9.62;97.30;98687.11;1631218;86;21060;-79
2021/09/20 00:23:58;;;;;;;1.20;1.02;;;;;;;9.59;97.51;98688.43;1650528;86;21135;-77
2021/09/20 00:26:25;;;;;;;1.30;1.20;;;;;;;9.56;97.73;98690.85;1631189;87;22129;-77
2021/09/20 00:28:53;;;;;;;1.50;1.20;;;;;;;9.52;97.98;98679.05;1650494;86;21050;-79
2021/09/20 00:31:21;;;;;;;0.93;0.93;;;;;;;9.53;98.18;98679.32;1650665;86;21531;-78
2021/09/20 00:33:49;;;;;;;1.45;1.10;;;;;;;9.54;98.52;98678.25;1650679;87;21007;-76
2021/09/20 00:36:16;;;;;;;1.00;1.00;;;;;;;9.56;98.75;98678.77;1650477;86;21049;-80
2021/09/20 00:38:44;;;;;;;2.05;1.27;;;;;;;9.56;98.85;98681.45;1622630;86;21562;-81
2021/09/20 00:41:12;;;;;;;1.80;1.20;;;;;;;9.56;98.96;98686.83;1620492;88;21014;-76
2021/09/20 00:43:40;;;;;;;1.10;1.10;;;;;;;9.57;99.04;98684.42;1614659;87;20998;-73
2021/09/20 00:46:07;;;;;;;1.00;1.00;;;;;;;9.52;99.03;98679.86;1634098;87;21608;-73
2021/09/20 00:48:35;;;;;;;1.40;1.17;;;;;;;9.49;99.20;98670.20;1606040;88;21082;-75
2021/09/20 00:51:02;;;;;;;1.40;1.20;;;;;;;9.47;99.33;98670.45;1597483;87;21795;-72
2021/09/20 00:53:28;;;;;;;1.17;1.07;;;;;;;9.46;99.62;98667.50;1650411;86;21149;-74
2021/09/20 00:55:55;;;;;;;1.30;1.20;;;;;;;9.45;99.74;98665.88;1650783;87;21094;-73
2021/09/20 00:58:21;;;;;;;1.12;1.10;;;;;;;9.44;99.98;98677.71;1664873;85;21040;-74
2021/09/20 01:00:48;;;;;;;1.30;1.20;;;;;;;9.47;100.00;98673.67;1654265;86;21059;-73
2021/09/20 01:03:14;;;;;;;0.95;0.93;;;;;;;9.46;100.00;98670.71;1634723;86;21836;-72
2021/09/20 01:05:41;;;;;;;1.15;1.10;;;;;;;9.46;100.00;98663.47;1657556;86;21042;-74
2021/09/20 01:08:08;;;;;;;1.00;0.98;;;;;;;9.48;100.00;98677.97;1657396;86;21137;-72
2021/09/20 01:10:36;;;;;;;1.05;0.90;;;;;;;9.49;100.00;98663.48;1635136;86;21500;-75
2021/09/20 01:13:03;;;;;;;1.32;1.17;;;;;;;9.45;100.00;98662.39;1634576;86;21591;-75
2021/09/20 01:15:29;;;;;;;0.90;0.90;;;;;;;9.43;100.00;98664.55;1630650;86;21601;-75
2021/09/20 01:17:56;;;;;;;1.10;1.00;;;;;;;9.42;100.00;98662.93;1664578;85;21544;-72
2021/09/20 01:20:25;;;;;;;1.62;1.00;;;;;;;9.42;100.00;98664.27;1657795;85;20968;-73
2021/09/20 01:23:01;;;;;;;3.60;1.20;;;;;;;9.41;100.00;98669.36;1657521;86;21052;-74
2021/09/20 01:25:28;;;;;;;0.85;0.85;;;;;;;9.41;100.00;98668.83;1634724;86;21087;-74
2021/09/20 01:27:54;;;;;;;1.07;1.02;;;;;;;9.42;100.00;98659.72;1657621;86;21125;-75
2021/09/20 01:30:21;;;;;;;1.10;1.00;;;;;;;9.38;100.00;98659.98;1629141;88;21135;-71
2021/09/20 01:32:47;;;;;;;0.80;0.80;;;;;;;9.38;100.00;98672.59;1634459;86;21061;-72
2021/09/20 01:35:19;;;;;;;0.95;0.80;;;;;;;9.38;100.00;98667.23;1664343;85;21308;-72
2021/09/20 01:37:46;;;;;;;3.12;1.10;;;;;;;9.39;100.00;98667.50;1635568;86;21097;-72
2021/09/20 01:40:13;;;;;;;1.00;1.00;;;;;;;9.38;100.00;98664.55;1657337;86;21317;-74
2021/09/20 01:42:40;;;;;;;2.95;1.15;;;;;;;9.36;100.00;98672.85;1656167;86;21611;-71
2021/09/20 01:45:10;;;;;;;1.22;1.12;;;;;;;9.34;100.00;98662.94;1657685;86;21501;-73
2021/09/20 01:47:36;;;;;;;1.00;1.00;;;;;;;9.36;100.00;98654.06;1657618;86;21029;-73
2021/09/20 01:50:04;;;;;;;0.68;0.68;;;;;;;9.40;100.00;98662.41;1657464;86;21037;-72
2021/09/20 01:52:30;;;;;;;2.55;1.07;;;;;;;9.41;100.00;98659.97;1634638;86;21064;-72
2021/09/20 01:54:58;;;;;;;1.10;1.07;;;;;;;9.43;100.00;98662.67;1657753;86;21068;-73
2021/09/20 01:57:26;;;;;;;0.80;0.80;;;;;;;9.44;100.00;98654.90;1602328;89;21156;-74
2021/09/20 01:59:52;;;;;;;1.05;0.82;;;;;;;9.46;100.00;98655.42;1629284;88;21712;-73
2021/09/20 02:02:19;;;;;;;1.72;1.12;;;;;;;9.46;100.00;98659.44;1634812;86;21099;-73
2021/09/20 02:04:47;;;;;;;0.88;0.80;;;;;;;9.46;100.00;98668.03;1656114;86;21094;-72
2021/09/20 02:07:14;;;;;;;0.88;0.88;;;;;;;9.49;100.00;98654.09;1634497;86;21460;-71
2021/09/20 02:09:40;;;;;;;2.45;0.80;;;;;;;9.52;100.00;98656.23;1655760;85;20999;-74
2021/09/20 02:12:06;;;;;;;1.25;1.15;;;;;;;9.53;100.00;98651.95;1656812;85;21138;-74
2021/09/20 02:14:34;;;;;;;1.37;0.90;;;;;;;9.52;100.00;98657.57;1655705;85;21043;-74
2021/09/20 02:17:03;;;;;;;1.47;1.37;;;;;;;9.52;100.00;98651.67;1655665;86;21568;-75
2021/09/20 02:19:31;;;;;;;3.52;1.07;;;;;;;9.52;100.00;98659.73;1634675;86;21047;-72
2021/09/20 02:21:58;;;;;;;0.80;0.80;;;;;;;9.51;100.00;98663.47;1655683;85;21012;-73
2021/09/20 02:24:25;;;;;;;0.98;0.98;;;;;;;9.52;100.00;98659.73;1634521;86;21078;-75
2021/09/20 02:26:54;;;;;;;1.00;1.00;;;;;;;9.54;100.00;98652.19;1655984;86;21007;-74
2021/09/20 02:29:20;;;;;;;1.10;0.93;;;;;;;9.55;100.00;98658.37;1634452;86;22010;-73
2021/09/20 02:31:47;;;;;;;1.80;1.20;;;;;;;9.53;100.00;98653.83;1655496;85;21069;-74
2021/09/20 02:34:13;;;;;;;0.80;0.80;;;;;;;9.52;100.00;98653.02;1655601;85;21516;-75
2021/09/20 02:36:40;;;;;;;1.42;1.02;;;;;;;9.53;100.00;98655.16;1634337;86;21096;-75
2021/09/20 02:39:06;;;;;;;1.20;1.10;;;;;;;9.55;100.00;98657.83;1655695;86;21126;-75
2021/09/20 02:41:32;;;;;;;1.67;1.10;;;;;;;9.56;100.00;98654.62;1631527;86;21250;-73
2021/09/20 02:44:00;;;;;;;0.90;0.90;;;;;;;9.59;100.00;98654.10;1655679;86;20968;-74
2021/09/20 02:46:26;;;;;;;1.00;1.00;;;;;;;9.57;100.00;98653.02;1656012;86;21013;-72
2021/09/20 02:48:55;;;;;;;0.95;0.95;;;;;;;9.56;100.00;98650.06;1655649;86;20967;-74
2021/09/20 02:51:21;;;;;;;0.80;0.80;;;;;;;9.56;100.00;98646.56;1655540;85;21504;-75
2021/09/20 02:53:47;;;;;;;0.98;0.98;;;;;;;9.57;100.00;98656.23;1656709;85;21262;-73
2021/09/20 02:56:15;;;;;;;0.80;0.80;;;;;;;9.59;100.00;98654.10;1655913;86;21525;-75
2021/09/20 02:58:42;;;;;;;1.02;1.00;;;;;;;9.57;100.00;98651.67;1629601;88;21086;-76
2021/09/20 03:01:08;;;;;;;0.90;0.90;;;;;;;9.57;100.00;98653.02;1652695;86;21405;-75
2021/09/20 03:03:36;;;;;;;0.80;0.80;;;;;;;9.59;100.00;98652.76;1648530;85;21080;-75
2021/09/20 03:06:02;;;;;;;0.90;0.90;;;;;;;9.55;100.00;98665.89;1646874;86;21114;-73
2021/09/20 03:08:30;;;;;;;1.02;1.02;;;;;;;9.52;100.00;98658.91;1648340;86;21090;-74
2021/09/20 03:10:57;;;;;;;1.60;1.50;;;;;;;9.49;100.00;98646.85;1648524;86;21008;-77
2021/09/20 03:13:27;;;;;;;0.90;0.90;;;;;;;9.50;100.00;98653.00;1629272;87;21169;-76
2021/09/20 03:15:54;;;;;;;1.50;0.93;;;;;;;9.49;100.00;98673.69;1648662;87;21031;-75
2021/09/20 03:18:21;;;;;;;0.93;0.93;;;;;;;9.47;100.00;98670.98;1629509;87;21911;-74
2021/09/20 03:20:49;;;;;;;2.25;1.02;;;;;;;9.45;100.00;98667.75;1648595;87;21039;-76
2021/09/20 03:23:15;;;;;;;0.88;0.88;;;;;;;9.44;100.00;98666.17;1648688;86;21664;-78
2021/09/20 03:25:43;;;;;;;4.03;0.98;;;;;;;9.44;100.00;98666.17;1648754;87;21007;-77
2021/09/20 03:28:10;;;;;;;0.90;0.90;;;;;;;9.44;100.00;98656.77;1648259;87;21036;-75
2021/09/20 03:30:36;;;;;;;0.82;0.82;;;;;;;9.45;100.00;98675.27;1648378;87;21156;-78
2021/09/20 03:33:04;;;;;;;1.05;0.80;;;;;;;9.48;100.00;98690.05;1648471;86;21644;-76
2021/09/20 03:35:31;;;;;;;1.65;1.50;;;;;;;9.47;100.00;98667.77;1629478;86;21040;-75
2021/09/20 03:37:58;;;;;;;1.10;1.05;;;;;;;9.46;100.00;98688.16;1648352;87;21030;-76
2021/09/20 03:40:24;;;;;;;1.77;1.00;;;;;;;9.45;100.00;98687.34;1648382;87;21103;-76
2021/09/20 03:42:51;;;;;;;0.93;0.93;;;;;;;9.40;100.00;98671.23;1629468;87;21319;-76
2021/09/20 03:45:17;;;;;;;1.17;0.98;;;;;;;9.41;100.00;98672.86;1648405;87;21003;-75
2021/09/20 03:47:43;;;;;;;0.90;0.90;;;;;;;9.43;100.00;98680.66;1648412;86;21072;-75
2021/09/20 03:50:10;;;;;;;0.82;0.82;;;;;;;9.46;100.00;98680.11;1648260;85;21056;-77
2021/09/20 03:52:39;;;;;;;1.27;1.17;;;;;;;9.45;100.00;98698.62;1648547;87;21050;-76
2021/09/20 03:55:07;;;;;;;2.12;1.25;;;;;;;9.47;100.00;98677.16;1648777;87;21204;-76
2021/09/20 03:57:34;;;;;;;1.47;1.30;;;;;;;9.47;100.00;98689.24;1648809;87;21031;-75
2021/09/20 04:00:00;;;;;;;1.75;1.20;;;;;;;9.46;100.00;98696.20;1648002;87;21048;-77
2021/09/20 04:02:27;;;;;;;1.27;1.17;;;;;;;9.45;100.00;98702.11;1655656;85;21027;-79
2021/09/20 04:04:54;;;;;;;1.20;1.10;;;;;;;9.43;100.00;98690.85;1634468;86;21074;-77
2021/09/20 04:07:22;;;;;;;1.40;1.30;;;;;;;9.43;100.00;98689.51;1657709;86;21513;-77
2021/09/20 04:09:48;;;;;;;4.62;1.40;;;;;;;9.45;100.00;98696.74;1657534;86;21012;-77
2021/09/20 04:12:15;;;;;;;1.22;1.12;;;;;;;9.46;100.00;98720.36;1629499;88;21548;-79
2021/09/20 04:14:42;;;;;;;4.08;1.42;;;;;;;9.45;100.00;98720.89;1657813;86;21032;-80
2021/09/20 04:17:10;;;;;;;2.60;1.30;;;;;;;9.43;100.00;98712.85;1657533;86;21055;-77
2021/09/20 04:19:37;;;;;;;1.85;1.45;;;;;;;9.43;100.00;98718.22;1657659;86;21139;-79
2021/09/20 04:22:04;;;;;;;2.42;1.72;;;;;;;9.42;100.00;98715.26;1606894;88;20975;-79
2021/09/20 04:24:32;;;;;;;1.30;1.20;;;;;;;9.42;100.00;98716.07;1657801;86;20971;-78
2021/09/20 04:27:00;;;;;;;2.22;1.50;;;;;;;9.43;100.00;98719.03;1657617;86;21553;-81
2021/09/20 04:29:28;;;;;;;3.62;1.85;;;;;;;9.46;100.00;98724.39;1657837;86;21023;-79
2021/09/20 04:31:56;;;;;;;1.60;1.50;;;;;;;9.46;100.00;98726.54;1603322;89;21036;-74
2021/09/20 04:34:24;;;;;;;1.17;1.17;;;;;;;9.46;100.00;98726.54;1607243;88;21124;-79
2021/09/20 04:36:52;;;;;;;1.40;1.30;;;;;;;9.47;100.00;98729.50;1678291;85;21515;-79
2021/09/20 04:39:18;;;;;;;1.57;1.47;;;;;;;9.50;100.00;98743.72;1659300;85;21144;-79
2021/09/20 04:41:44;;;;;;;1.40;1.30;;;;;;;9.49;100.00;98734.08;1680490;84;21022;-76
2021/09/20 04:44:11;;;;;;;1.62;1.52;;;;;;;9.52;100.00;98728.17;1657498;86;21219;-76
2021/09/20 04:46:38;;;;;;;4.95;1.55;;;;;;;9.55;100.00;98733.52;1657279;86;20973;-76
2021/09/20 04:49:05;;;;;;;1.20;1.20;;;;;;;9.58;100.00;98734.35;1634141;86;21120;-76
2021/09/20 04:51:31;;;;;;;1.25;1.25;;;;;;;9.56;100.00;98735.95;1657795;86;21099;-77
2021/09/20 04:53:59;;;;;;;2.15;1.60;;;;;;;9.59;100.00;98740.00;1657426;86;21106;-76
2021/09/20 04:56:25;;;;;;;1.32;1.22;;;;;;;9.61;100.00;98737.84;1657415;86;21718;-79
2021/09/20 04:58:52;;;;;;;1.12;1.10;;;;;;;9.62;100.00;98733.55;1667750;86;20977;-79
2021/09/20 05:01:18;;;;;;;1.35;1.25;;;;;;;9.64;100.00;98757.42;1669580;86;21113;-79
2021/09/20 05:03:44;;;;;;;1.27;1.17;;;;;;;9.64;100.00;98746.16;1667977;86;22195;-78
2021/09/20 05:06:11;;;;;;;1.55;1.45;;;;;;;9.66;100.00;98757.98;1681016;85;21050;-80
2021/09/20 05:08:39;;;;;;;4.12;1.62;;;;;;;9.66;100.00;98750.45;1681977;85;21023;-77
2021/09/20 05:11:07;;;;;;;1.60;1.27;;;;;;;9.66;100.00;98753.14;1643966;86;21504;-78
2021/09/20 05:13:35;;;;;;;1.50;1.40;;;;;;;9.64;100.00;98766.28;1669594;85;20995;-78
2021/09/20 05:16:01;;;;;;;1.57;1.47;;;;;;;9.67;100.00;98762.81;1648339;86;21512;-79
2021/09/20 05:18:29;;;;;;;1.35;1.25;;;;;;;9.68;100.00;98761.75;1669461;85;20980;-78
2021/09/20 05:20:57;;;;;;;1.22;1.12;;;;;;;9.68;100.00;98764.43;1669302;85;21018;-77
2021/09/20 05:23:25;;;;;;;1.57;1.37;;;;;;;9.68;100.00;98754.50;1669392;85;21101;-81
2021/09/20 05:25:52;;;;;;;2.62;2.42;;;;;;;9.72;100.00;98766.85;1668385;86;21030;-80
2021/09/20 05:28:18;;;;;;;1.60;1.50;;;;;;;9.72;100.00;98770.34;1669295;85;21093;-80
2021/09/20 05:30:45;;;;;;;1.47;1.30;;;;;;;9.73;100.00;98769.81;1670234;85;21061;-83
2021/09/20 05:33:14;;;;;;;1.60;1.50;;;;;;;9.73;100.00;98775.98;1654825;85;21504;-78
2021/09/20 05:35:42;;;;;;;2.20;2.05;;;;;;;9.73;100.00;98762.56;1681738;85;20948;-79
2021/09/20 05:38:12;;;;;;;1.57;1.40;;;;;;;9.74;100.00;98773.55;1659823;84;21043;-82
2021/09/20 05:40:38;;;;;;;2.12;1.70;;;;;;;9.75;100.00;98771.67;1648431;85;21597;-83
2021/09/20 05:43:04;;;;;;;1.85;1.75;;;;;;;9.77;100.00;98764.17;1673936;85;21062;-83
2021/09/20 05:45:31;;;;;;;1.70;1.60;;;;;;;9.79;100.00;98767.38;1678227;84;21304;-88
2021/09/20 05:47:59;;;;;;;3.15;1.95;;;;;;;9.79;100.00;98792.89;1672237;85;20959;-88
2021/09/20 05:50:26;;;;;;;1.92;1.82;;;;;;;9.79;100.00;98781.61;1670167;84;21167;-90
2021/09/20 05:52:52;;;;;;;2.00;1.90;;;;;;;9.81;100.00;98796.94;1635967;86;21030;-87
2021/09/20 05:55:18;;;;;;;3.35;2.08;;;;;;;9.81;100.00;98795.59;1630783;86;21035;-85
2021/09/20 05:57:47;;;;;;;2.00;1.90;;;;;;;9.81;100.00;98789.41;1631586;86;22941;-88
2021/09/20 06:00:15;;;;;;;2.10;1.80;;;;;;;9.83;100.00;98806.08;1662470;85;21125;-89
2021/09/20 06:02:42;;;;;;;2.70;2.50;;;;;;;9.83;100.00;98789.41;1673786;84;20978;-84
2021/09/20 06:05:12;;;;;;;2.10;1.98;;;;;;;9.85;100.00;98788.61;1665260;86;21315;-83
2021/09/20 06:07:39;;;;;;;2.33;2.10;;;;;;;9.85;100.00;98808.75;1629796;87;21130;-86
2021/09/20 06:10:07;;;;;;;2.00;1.90;;;;;;;9.88;100.00;98828.35;1607870;87;21148;-87
2021/09/20 06:12:33;;;;;;;1.90;1.80;;;;;;;9.89;100.00;98801.77;1653127;86;20999;-87
2021/09/20 06:15:06;;;;;;;2.25;1.90;;;;;;;9.92;100.00;98815.22;1663405;86;20990;-85
2021/09/20 06:17:34;;;;;;;2.55;2.30;;;;;;;9.93;100.00;98814.12;1666402;86;21095;-83
2021/09/20 06:20:01;;;;;;;1.75;1.65;;;;;;;9.94;100.00;98819.77;1662019;86;21093;-81
2021/09/20 06:22:29;;;;;;;2.45;1.72;;;;;;;9.94;100.00;98817.89;1662590;86;21009;-80
2021/09/20 06:24:58;;;;;;;2.12;1.82;;;;;;;9.93;100.00;98823.52;1662151;86;21078;-87
2021/09/20 06:27:26;;;;;;;1.72;1.62;;;;;;;9.94;100.00;98812.52;1616469;88;21559;-91
2021/09/20 06:29:53;;;;;;;2.25;2.05;;;;;;;9.99;100.00;98815.22;1598203;89;21070;-88
2021/09/20 06:32:19;;;;;;;1.40;1.30;;;;;;;10.02;100.00;98825.41;1645098;86;21251;-83
2021/09/20 06:34:45;;;;;;;1.85;1.75;;;;;;;10.03;100.00;98831.59;1662213;86;21073;-81
2021/09/20 06:37:13;;;;;;;1.80;1.70;;;;;;;10.04;100.00;98828.66;1662138;86;20962;-83
2021/09/20 06:39:40;;;;;;;2.60;2.10;;;;;;;10.10;100.00;98832.69;1662035;85;21050;-85
2021/09/20 06:42:06;;;;;;;1.82;1.72;;;;;;;10.14;100.00;98835.91;1644836;86;21053;-84
2021/09/20 06:44:35;;;;;;;2.33;2.10;;;;;;;10.17;100.00;98830.02;1662262;86;20969;-87
2021/09/20 06:47:01;;;;;;;2.50;2.30;;;;;;;10.19;100.00;98837.83;1662293;85;21060;-85
2021/09/20 06:49:28;;;;;;;2.83;2.55;;;;;;;10.20;100.00;98840.25;1661880;86;21090;-85
2021/09/20 06:51:54;;;;;;;6.35;2.08;;;;;;;10.20;100.00;98849.66;1627736;88;21532;-82
2021/09/20 06:54:21;;;;;;;3.05;2.12;;;;;;;10.22;100.00;98854.75;1644840;85;21077;-86
2021/09/20 06:56:48;;;;;;;1.75;1.65;;;;;;;10.25;100.00;98843.48;1627855;86;21605;-87
2021/09/20 06:59:14;;;;;;;2.45;2.25;;;;;;;10.26;100.00;98873.31;1600755;89;21138;-86
2021/09/20 07:01:40;;;;;;;2.45;2.25;;;;;;;10.28;100.00;98851.80;1663269;85;21065;-85
2021/09/20 07:04:07;;;;;;;1.70;1.60;;;;;;;10.29;100.00;98857.98;1652219;86;21018;-84
2021/09/20 07:06:33;;;;;;;1.95;1.80;;;;;;;10.30;100.00;98859.08;1673900;85;21090;-84
2021/09/20 07:09:00;;;;;;;2.67;2.40;;;;;;;10.33;100.00;98859.88;1655196;85;21117;-85
2021/09/20 07:11:26;;;;;;;2.35;1.82;;;;;;;10.37;100.00;98860.95;1671965;85;22232;-86
2021/09/20 07:13:52;;;;;;;2.25;1.87;;;;;;;10.38;100.00;98866.59;1671497;85;21097;-83
2021/09/20 07:16:19;;;;;;;2.10;1.95;;;;;;;10.42;100.00;98879.77;1671843;85;21288;-86
2021/09/20 07:18:46;;;;;;;2.12;1.92;;;;;;;10.42;100.00;98870.36;1654155;85;21542;-85
2021/09/20 07:21:12;;;;;;;3.95;2.20;;;;;;;10.43;100.00;98874.66;1671731;85;21089;-79
2021/09/20 07:23:39;;;;;;;3.17;2.12;;;;;;;10.44;100.00;98877.62;1653900;85;22112;-88
2021/09/20 07:26:05;;;;;;;1.72;1.62;;;;;;;10.48;100.00;98885.41;1653738;85;21069;-86
2021/09/20 07:28:32;;;;;;;3.30;2.17;;;;;;;10.51;100.00;98896.16;1671992;85;20931;-88
2021/09/20 07:30:58;;;;;;;2.22;1.80;;;;;;;10.54;100.00;98890.27;1654182;85;21113;-87
2021/09/20 07:33:24;;;;;;;2.42;2.12;;;;;;;10.55;100.00;98885.70;1655222;85;21009;-89
2021/09/20 07:35:51;;;;;;;2.30;2.10;;;;;;;10.55;100.00;98881.66;1655200;85;21092;-87
2021/09/20 07:38:17;;;;;;;2.05;1.85;;;;;;;10.58;100.00;98892.67;1673878;85;21129;-87
2021/09/20 07:40:44;;;;;;;3.12;2.30;;;;;;;10.61;100.00;98892.12;1652751;86;21542;-88
2021/09/20 07:43:10;;;;;;;3.30;1.80;;;;;;;10.63;100.00;98920.09;1673131;84;21060;-86
2021/09/20 07:45:38;;;;;;;1.95;1.82;;;;;;;10.64;100.00;98899.67;1632829;86;21033;-89
2021/09/20 07:48:05;;;;;;;2.12;1.92;;;;;;;10.67;100.00;98899.66;1673266;85;21135;-85
2021/09/20 07:50:31;;;;;;;2.77;2.17;;;;;;;10.71;100.00;98897.50;1652087;85;20974;-87
2021/09/20 07:52:58;;;;;;;2.40;2.20;;;;;;;10.72;100.00;98903.16;1654880;85;21025;-86
2021/09/20 07:55:24;;;;;;;2.50;2.02;;;;;;;10.73;100.00;98901.28;1652275;86;21534;-86
2021/09/20 07:57:50;;;;;;;2.17;1.90;;;;;;;10.70;100.00;98917.40;1672391;84;21065;-89
2021/09/20 08:00:17;;;;;;;1.80;1.70;;;;;;;10.71;100.00;98906.91;1654103;85;21619;-86
2021/09/20 08:02:43;;;;;;;1.90;1.80;;;;;;;10.69;100.00;98908.28;1671525;85;21033;-85
2021/09/20 08:05:10;;;;;;;1.72;1.62;;;;;;;10.67;100.00;98911.77;1671776;84;21117;-85
2021/09/20 08:07:37;;;;;;;3.87;1.80;;;;;;;10.61;100.00;98917.67;1653824;85;21049;-88
2021/09/20 08:10:06;;;;;;;1.80;1.70;;;;;;;10.59;100.00;98920.38;1671630;85;21535;-89
2021/09/20 08:12:34;;;;;;;1.75;1.65;;;;;;;10.61;100.00;98919.55;1671752;84;21941;-86
2021/09/20 08:15:01;;;;;;;2.30;2.10;;;;;;;10.61;100.00;98929.77;1671593;85;20931;-86
2021/09/20 08:17:27;;;;;;;1.60;1.50;;;;;;;10.61;100.00;98923.05;1671740;85;21058;-86
2021/09/20 08:19:55;;;;;;;1.50;1.40;;;;;;;10.63;100.00;98942.95;1672487;85;20994;-88
2021/09/20 08:22:23;;;;;;;1.85;1.40;;;;;;;10.64;100.00;98931.95;1632770;86;21050;-85
2021/09/20 08:24:51;;;;;;;2.52;2.30;;;;;;;10.66;100.00;98940.53;1673610;85;21000;-85
2021/09/20 08:27:17;;;;;;;2.00;1.80;;;;;;;10.68;100.00;98927.64;1673419;85;20993;-88
2021/09/20 08:29:44;;;;;;;1.30;1.20;;;;;;;10.67;100.00;98940.00;1632800;86;21073;-88
2021/09/20 08:32:10;;;;;;;4.67;1.50;;;;;;;10.70;100.00;98936.76;1673139;85;21033;-90
2021/09/20 08:34:37;;;;;;;1.35;1.25;;;;;;;10.72;100.00;98932.74;1632168;86;21555;-91
2021/09/20 08:37:04;;;;;;;1.50;1.40;;;;;;;10.76;100.00;98927.63;1645969;86;21039;-86
2021/09/20 08:39:30;;;;;;;1.60;1.50;;;;;;;10.76;100.00;98946.45;1625581;88;21105;-90
2021/09/20 08:41:57;;;;;;;1.92;1.82;;;;;;;10.78;100.00;98934.36;1625229;88;21101;-89
2021/09/20 08:44:23;;;;;;;1.60;1.50;;;;;;;10.82;100.00;98952.91;1645716;86;21582;-86
2021/09/20 08:46:51;;;;;;;2.00;1.90;;;;;;;10.83;100.00;98933.55;1625322;88;21081;-90
2021/09/20 08:49:21;;;;;;;1.52;1.42;;;;;;;10.86;100.00;98941.07;1645720;85;21081;-91
2021/09/20 08:51:57;;;;;;;3.35;1.77;;;;;;;10.85;100.00;98938.91;1625419;88;21058;-90
2021/09/20 08:54:24;;;;;;;2.58;2.20;;;;;;;10.89;100.00;98950.75;1606660;88;21081;-89
2021/09/20 08:56:52;;;;;;;4.40;1.60;;;;;;;10.93;100.00;98956.41;1630291;85;21132;-90
2021/09/20 08:59:18;;;;;;;1.65;1.55;;;;;;;10.95;100.00;98963.66;1645845;86;21068;-89
2021/09/20 09:01:48;;;;;;;3.52;2.30;;;;;;;10.95;100.00;98966.35;1646056;87;21137;-88
2021/09/20 09:04:35;;;;;;;3.08;2.77;;;;;;;10.95;100.00;98977.11;1604697;88;21065;-89
2021/09/20 09:07:07;;;;;;;3.60;3.17;;;;;;;10.98;100.00;98967.71;1602164;89;21125;-89
2021/09/20 09:09:36;;;;;;;5.03;4.55;;;;;;;10.97;100.00;98979.55;1602218;88;21090;-87
2021/09/20 09:12:23;;;;;;;6.83;5.95;;;;;;;10.97;100.00;98968.78;1602216;88;21050;-90
2021/09/20 09:14:58;;;;;;;4.12;3.83;;;;;;;10.97;100.00;98970.13;1602325;87;21055;-87
2021/09/20 09:17:39;;;;;;;6.55;4.40;;;;;;;10.98;100.00;98976.59;1602780;88;21641;-89
2021/09/20 09:20:19;;;;;;;4.37;3.98;;;;;;;10.98;100.00;98983.32;1602539;88;21085;-92
2021/09/20 09:22:51;;;;;;;3.72;3.20;;;;;;;10.97;100.00;98987.61;1602565;88;21583;-88
2021/09/20 09:25:39;;;;;;;3.92;3.52;;;;;;;10.97;100.00;98995.69;1619386;88;21067;-90
2021/09/20 09:28:22;;;;;;;4.28;3.87;;;;;;;10.96;100.00;98988.69;1626898;88;21467;-88
2021/09/20 09:30:57;;;;;;;5.10;4.45;;;;;;;10.97;100.00;98992.46;1627749;87;21003;-88
2021/09/20 09:33:39;;;;;;;5.65;4.83;;;;;;;10.97;100.00;98995.16;1628808;87;21058;-90
2021/09/20 09:36:08;;;;;;;5.08;4.03;;;;;;;10.96;100.00;99000.26;1627298;87;21003;-90
2021/09/20 09:38:34;;;;;;;4.70;4.30;;;;;;;10.98;100.00;99002.69;1626668;88;21006;-92
2021/09/20 09:41:03;;;;;;;6.37;4.55;;;;;;;10.99;100.00;99002.94;1628004;87;21003;-94
2021/09/20 09:43:37;;;;;;;4.47;3.85;;;;;;;10.99;100.00;99017.20;1616433;88;21053;-89
2021/09/20 09:46:18;;;;;;;;;;;;;;;11.03;100.00;99009.42;1602751;88;20986;-77
2021/09/20 09:48:44;;;;;;;3.45;3.15;;;;;;;11.08;100.00;99018.84;1603177;89;20576;-86
2021/09/20 09:51:12;;;;;;;2.95;2.52;;;;;;;11.16;100.00;99015.06;1627171;88;21088;-82
2021/09/20 09:53:41;;;;;;;3.83;3.52;;;;;;;11.23;100.00;99018.80;1629155;87;21160;-77
2021/09/20 09:56:17;;;;;;;3.62;2.70;;;;;;;11.29;100.00;99013.16;1631267;87;21172;-85
2021/09/20 09:59:02;;;;;;;3.58;3.27;;;;;;;11.37;100.00;99024.72;1634669;87;21115;-83
2021/09/20 10:01:40;;;;;;;3.77;3.40;;;;;;;11.44;100.00;99027.68;1567343;89;21634;-88
2021/09/20 10:04:20;;;;;;;3.77;3.00;;;;;;;11.50;100.00;99014.48;1585027;88;21078;-79
2021/09/20 10:06:47;;;;;;;6.40;3.65;;;;;;;11.59;100.00;99011.50;1655735;85;21129;-81
2021/09/20 10:09:18;;;;;;;4.42;3.95;;;;;;;11.66;100.00;99020.08;1674249;85;20969;-85
2021/09/20 10:11:48;;;;;;;4.10;3.77;;;;;;;11.68;100.00;99026.83;1656650;85;21136;-86
2021/09/20 10:14:16;;;;;;;5.30;3.58;;;;;;;11.75;100.00;99028.71;1656510;86;21559;-85
2021/09/20 10:16:43;;;;;;;3.10;2.80;;;;;;;11.80;100.00;99017.11;1656488;85;21528;-77
2021/09/20 10:19:11;;;;;;;5.15;2.60;;;;;;;11.89;100.00;99022.23;1655948;86;20963;-77
2021/09/20 10:21:38;;;;;;;2.87;2.67;;;;;;;11.98;100.00;99027.86;1655912;85;21125;-78
2021/09/20 10:24:06;;;;;;;3.58;3.27;;;;;;;12.06;100.00;99043.45;1675075;85;21506;-88
2021/09/20 10:26:33;;;;;;;3.45;3.02;;;;;;;12.05;96.71;99026.47;1657636;85;21073;-83
2021/09/20 10:29:01;;;;;;;3.65;2.75;;;;;;;12.09;96.49;99029.41;1677395;85;21614;-81
2021/09/20 10:31:28;;;;;;;3.42;2.90;;;;;;;12.09;96.35;99041.54;1644560;86;21625;-79
2021/09/20 10:34:24;;;;;;;2.62;2.27;;;;;;;12.10;96.23;99045.86;1672063;85;21013;-88
2021/09/20 10:37:06;;;;;;;3.17;2.87;;;;;;;12.08;96.29;99042.11;1677698;85;21530;-82
2021/09/20 10:39:58;;;;;;;4.17;2.40;;;;;;;12.11;96.54;99059.06;1668241;85;21002;-86
2021/09/20 10:42:48;;;;;;;2.95;2.75;;;;;;;12.12;96.03;99052.60;1617940;85;20998;-82
2021/09/20 10:45:49;;;;;;;3.30;3.00;;;;;;;12.12;95.72;99062.03;1655704;86;20951;-83
2021/09/20 10:48:21;;;;;;;3.65;3.02;;;;;;;12.08;95.10;99066.37;1634740;86;21099;-83
2021/09/20 10:51:00;;;;;;;3.37;2.30;;;;;;;12.07;94.42;99059.89;1634748;86;21058;-77
2021/09/20 10:53:32;;;;;;;3.67;3.00;;;;;;;12.04;94.24;99061.23;1629519;88;21536;-79
2021/09/20 10:56:07;;;;;;;2.62;2.42;;;;;;;12.02;93.97;99075.55;1604872;89;21116;-75
2021/09/20 10:58:55;;;;;;;2.52;2.33;;;;;;;11.98;93.35;99077.71;1631326;86;21099;-75
2021/09/20 11:01:33;;;;;;;1.92;1.82;;;;;;;11.98;93.18;99065.05;1626800;85;21064;-72
2021/09/20 11:04:11;;;;;;;2.02;1.82;;;;;;;12.01;92.44;99060.98;1646274;85;21002;-72
2021/09/20 11:06:39;;;;;;;2.17;2.08;;;;;;;12.08;91.99;99065.02;1655710;86;21103;-71
2021/09/20 11:09:12;;;;;;;1.80;1.70;;;;;;;12.12;91.31;99066.62;1634536;86;21157;-72
2021/09/20 11:11:45;;;;;;;3.65;2.22;;;;;;;12.15;90.46;99068.21;1656021;86;21613;-76
2021/09/20 11:14:22;;;;;;;2.40;2.20;;;;;;;12.18;90.08;99079.00;1659045;85;21016;-86
2021/09/20 11:16:59;;;;;;;3.50;2.50;;;;;;;12.15;89.14;99066.87;1655908;86;21058;-83
2021/09/20 11:19:31;;;;;;;2.12;2.00;;;;;;;12.14;88.57;99090.85;1639221;85;21022;-85
2021/09/20 11:22:12;;;;;;;1.90;1.80;;;;;;;12.12;88.32;99097.08;1650074;86;21015;-83
2021/09/20 11:24:51;;;;;;;3.72;2.00;;;;;;;12.13;88.21;99079.80;1627651;88;21081;-85
2021/09/20 11:27:37;;;;;;;2.60;2.40;;;;;;;12.18;88.06;99083.05;1655832;85;21058;-82
2021/09/20 11:30:14;;;;;;;3.25;1.62;;;;;;;12.19;87.50;99085.45;1655813;86;21615;-84
2021/09/20 11:32:48;;;;;;;1.52;1.42;;;;;;;12.17;87.65;99091.67;1667193;85;21070;-84
2021/09/20 11:35:16;;;;;;;1.90;1.55;;;;;;;12.16;88.24;99088.70;1660602;85;20969;-78
2021/09/20 11:37:43;;;;;;;1.35;1.25;;;;;;;12.13;88.04;99101.36;1675670;85;21093;-77
2021/09/20 11:40:15;;;;;;;1.62;1.30;;;;;;;12.06;87.60;99104.09;1655778;86;21501;-76